createdAt,value
2022-11-05T00:01:32.418Z,5.35
2022-11-05T00:04:18.074Z,3.78
2022-11-05T00:07:02.796Z,4.97
2022-11-05T00:09:30.185Z,5.68
2022-11-05T00:12:15.689Z,5.03
2022-11-05T00:15:00.758Z,6.00
2022-11-05T00:17:27.121Z,5.13
2022-11-05T00:19:53.609Z,5.68
2022-11-05T00:22:38.604Z,5.38
2022-11-05T00:25:14.168Z,7.55
2022-11-05T00:27:40.880Z,7.72
2022-11-05T00:30:07.710Z,11.02
2022-11-05T00:32:35.976Z,10.35
2022-11-05T00:35:02.267Z,8.45
2022-11-05T00:37:28.855Z,10.15
2022-11-05T00:39:55.129Z,13.93
2022-11-05T00:42:40.330Z,15.52
2022-11-05T00:45:07.006Z,18.63
2022-11-05T00:47:52.123Z,22.13
2022-11-05T00:50:19.387Z,24.67
2022-11-05T00:53:01.587Z,21.30
2022-11-05T00:55:34.212Z,21.92
2022-11-05T00:58:01.577Z,21.50
2022-11-05T01:00:29.277Z,20.30
2022-11-05T01:02:59.667Z,20.30
2022-11-05T01:05:26.014Z,19.40
2022-11-05T01:07:53.068Z,23.52
2022-11-05T01:10:19.864Z,18.98
2022-11-05T01:12:46.156Z,21.50
2022-11-05T01:15:12.472Z,21.98
2022-11-05T01:17:38.758Z,22.02
2022-11-05T01:20:05.274Z,22.88
2022-11-05T01:22:31.616Z,24.15
2022-11-05T01:24:57.893Z,24.52
2022-11-05T01:27:24.176Z,26.00
2022-11-05T01:29:50.563Z,30.88
2022-11-05T01:32:16.859Z,23.70
2022-11-05T01:34:43.141Z,23.27
2022-11-05T01:37:09.409Z,32.10
2022-11-05T01:39:35.752Z,27.63
2022-11-05T01:42:02.100Z,27.33
2022-11-05T01:44:47.862Z,25.95
2022-11-05T01:47:20.663Z,26.60
2022-11-05T01:49:46.987Z,30.05
2022-11-05T01:52:13.360Z,30.50
2022-11-05T01:54:39.632Z,32.17
2022-11-05T01:57:07.918Z,35.35
2022-11-05T01:59:37.459Z,27.60
2022-11-05T02:02:05.937Z,27.85
2022-11-05T02:04:35.513Z,32.65
2022-11-05T02:07:02.877Z,28.73
2022-11-05T02:09:30.955Z,28.73
2022-11-05T02:11:57.260Z,31.63
2022-11-05T02:14:23.602Z,29.35
2022-11-05T02:16:49.885Z,28.98
2022-11-05T02:19:37.954Z,28.75
2022-11-05T02:22:10.458Z,28.27
2022-11-05T02:24:55.137Z,27.20
2022-11-05T02:27:41.682Z,27.30
2022-11-05T02:30:26.804Z,27.40
2022-11-05T02:33:07.785Z,26.42
2022-11-05T02:35:43.075Z,32.17
2022-11-05T02:38:13.010Z,27.55
2022-11-05T02:40:48.499Z,28.60
2022-11-05T02:43:23.843Z,29.33
2022-11-05T02:45:57.399Z,29.45
2022-11-05T02:48:41.802Z,31.38
2022-11-05T02:51:12.685Z,34.70
2022-11-05T02:53:44.851Z,38.90
2022-11-05T02:56:16.135Z,40.55
2022-11-05T02:58:42.575Z,40.88
2022-11-05T03:01:09.901Z,45.17
2022-11-05T03:03:38.609Z,48.92
2022-11-05T03:06:23.838Z,47.85
2022-11-05T03:09:02.485Z,48.75
2022-11-05T03:11:30.780Z,49.75
2022-11-05T03:13:57.031Z,47.13
2022-11-05T03:16:31.482Z,48.00
2022-11-05T03:19:06.679Z,47.50
2022-11-05T03:21:42.414Z,43.83
2022-11-05T03:24:12.202Z,45.05
2022-11-05T03:26:43.166Z,39.67
2022-11-05T03:29:11.331Z,37.22
2022-11-05T03:31:38.956Z,38.60
2022-11-05T03:34:06.475Z,36.42
2022-11-05T03:36:41.396Z,35.03
2022-11-05T03:39:08.973Z,33.83
2022-11-05T03:41:38.163Z,37.25
2022-11-05T03:44:06.096Z,31.73
2022-11-05T03:46:39.586Z,34.92
2022-11-05T03:49:06.598Z,31.52
2022-11-05T03:51:39.209Z,28.17
2022-11-05T03:54:05.700Z,30.85
2022-11-05T03:56:41.296Z,30.92
2022-11-05T03:59:09.089Z,31.92
2022-11-05T04:01:36.624Z,28.02
2022-11-05T04:04:03.891Z,29.13
2022-11-05T04:06:48.981Z,23.27
2022-11-05T04:09:34.081Z,25.58
2022-11-05T04:12:19.090Z,26.23
2022-11-05T04:14:45.448Z,21.33
2022-11-05T04:17:11.748Z,24.58
2022-11-05T04:20:03.378Z,23.83
2022-11-05T04:22:52.546Z,21.50
2022-11-05T04:25:18.907Z,28.27
2022-11-05T04:27:45.331Z,22.63
2022-11-05T04:30:21.796Z,24.73
2022-11-05T04:32:55.192Z,22.73
2022-11-05T04:35:21.483Z,23.42
2022-11-05T04:37:47.736Z,21.73
2022-11-05T04:40:14.052Z,19.55
2022-11-05T04:42:40.351Z,19.98
2022-11-05T04:45:06.700Z,19.60
2022-11-05T04:47:33.009Z,18.30
2022-11-05T04:49:59.273Z,16.20
2022-11-05T04:52:25.559Z,13.02
2022-11-05T04:54:51.830Z,16.63
2022-11-05T04:57:18.139Z,15.13
2022-11-05T04:59:44.391Z,12.05
2022-11-05T05:02:10.741Z,10.00
2022-11-05T05:04:37.066Z,13.82
2022-11-05T05:07:03.382Z,11.50
2022-11-05T05:09:29.667Z,11.45
2022-11-05T05:11:55.952Z,14.15
2022-11-05T05:14:22.221Z,15.43
2022-11-05T05:16:48.561Z,17.58
2022-11-05T05:19:15.426Z,21.17
2022-11-05T05:21:42.258Z,27.10
2022-11-05T05:24:10.343Z,24.73
2022-11-05T05:26:37.618Z,26.85
2022-11-05T05:29:04.355Z,28.13
2022-11-05T05:31:30.669Z,29.63
2022-11-05T05:33:57.166Z,28.63
2022-11-05T05:36:23.743Z,32.10
2022-11-05T05:38:50.401Z,30.23
2022-11-05T05:41:16.733Z,34.00
2022-11-05T05:43:43.389Z,30.33
2022-11-05T05:46:14.319Z,33.75
2022-11-05T05:48:40.885Z,32.83
2022-11-05T05:51:08.421Z,33.10
2022-11-05T05:53:34.847Z,31.27
2022-11-05T05:56:01.219Z,35.75
2022-11-05T05:58:30.906Z,32.00
2022-11-05T06:01:00.307Z,31.45
2022-11-05T06:03:26.578Z,33.85
2022-11-05T06:05:52.835Z,28.08
2022-11-05T06:08:19.210Z,33.92
2022-11-05T06:10:51.820Z,29.00
2022-11-05T06:13:18.142Z,34.20
2022-11-05T06:15:44.459Z,37.55
2022-11-05T06:18:10.738Z,31.08
2022-11-05T06:20:37.018Z,34.08
2022-11-05T06:23:03.280Z,36.45
2022-11-05T06:25:29.581Z,28.88
2022-11-05T06:27:55.863Z,32.22
2022-11-05T06:30:23.479Z,32.08
2022-11-05T06:32:49.897Z,33.22
2022-11-05T06:35:16.179Z,38.17
2022-11-05T06:37:42.441Z,34.72
2022-11-05T06:40:09.205Z,33.28
2022-11-05T06:42:35.560Z,33.75
2022-11-05T06:45:01.882Z,31.02
2022-11-05T06:47:28.217Z,30.20
2022-11-05T06:49:54.594Z,30.17
2022-11-05T06:52:20.888Z,32.33
2022-11-05T06:54:47.155Z,30.70
2022-11-05T06:57:13.404Z,29.98
2022-11-05T06:59:39.955Z,31.95
2022-11-05T07:02:07.465Z,31.40
2022-11-05T07:04:33.807Z,29.42
2022-11-05T07:07:00.870Z,31.17
2022-11-05T07:09:27.851Z,26.48
2022-11-05T07:11:54.688Z,28.55
2022-11-05T07:14:21.075Z,29.30
2022-11-05T07:16:47.407Z,30.30
2022-11-05T07:19:13.794Z,35.15
2022-11-05T07:21:40.814Z,27.10
2022-11-05T07:24:08.336Z,28.20
2022-11-05T07:26:34.825Z,32.78
2022-11-05T07:29:01.194Z,26.63
2022-11-05T07:31:27.478Z,27.63
2022-11-05T07:33:53.856Z,25.77
2022-11-05T07:36:20.100Z,28.02
2022-11-05T07:38:46.369Z,31.08
2022-11-05T07:41:12.725Z,31.08
2022-11-05T07:43:39.027Z,26.42
2022-11-05T07:46:07.591Z,21.90
2022-11-05T07:48:37.535Z,21.88
2022-11-05T07:51:03.921Z,23.65
2022-11-05T07:53:30.223Z,22.40
2022-11-05T07:55:58.785Z,19.98
2022-11-05T07:58:25.047Z,22.58
2022-11-05T08:00:51.472Z,22.33
2022-11-05T08:03:18.640Z,21.45
2022-11-05T08:05:46.742Z,20.70
2022-11-05T08:08:14.156Z,17.70
2022-11-05T08:10:40.690Z,26.33
2022-11-05T08:13:07.675Z,20.70
2022-11-05T08:15:34.393Z,20.02
2022-11-05T08:18:01.373Z,18.17
2022-11-05T08:20:28.023Z,18.42
2022-11-05T08:22:54.644Z,16.23
2022-11-05T08:25:20.936Z,12.68
2022-11-05T08:27:47.236Z,20.75
2022-11-05T08:30:13.585Z,18.92
2022-11-05T08:32:39.836Z,19.35
2022-11-05T08:35:06.288Z,16.42
2022-11-05T08:37:32.544Z,20.67
2022-11-05T08:39:58.851Z,18.00
2022-11-05T08:42:25.135Z,15.27
2022-11-05T08:44:51.393Z,15.57
2022-11-05T08:47:17.680Z,19.17
2022-11-05T08:49:43.951Z,14.30
2022-11-05T08:52:10.223Z,14.13
2022-11-05T08:54:36.498Z,14.48
2022-11-05T08:57:02.786Z,13.90
2022-11-05T08:59:29.786Z,15.32
2022-11-05T09:01:56.253Z,13.05
2022-11-05T09:04:22.808Z,12.35
2022-11-05T09:06:49.146Z,13.48
2022-11-05T09:09:15.427Z,13.20
2022-11-05T09:12:05.740Z,18.15
2022-11-05T09:14:28.438Z,10.57
2022-11-05T09:16:54.713Z,11.18
2022-11-05T09:19:20.979Z,11.45
2022-11-05T09:21:47.268Z,11.52
2022-11-05T09:24:13.578Z,8.73
2022-11-05T09:26:39.862Z,11.70
2022-11-05T09:29:09.193Z,9.77
2022-11-05T09:31:38.014Z,8.82
2022-11-05T09:34:04.275Z,8.35
2022-11-05T09:36:30.692Z,8.75
2022-11-05T09:38:57.163Z,12.35
2022-11-05T09:41:27.424Z,8.18
2022-11-05T09:43:55.699Z,9.10
2022-11-05T09:46:23.975Z,7.88
2022-11-05T09:49:16.684Z,14.55
2022-11-05T09:51:43.057Z,10.10
2022-11-05T09:54:10.628Z,12.15
2022-11-05T09:56:38.654Z,10.85
2022-11-05T09:59:08.210Z,8.55
2022-11-05T10:01:35.772Z,10.38
2022-11-05T10:04:05.738Z,11.52
2022-11-05T10:06:32.078Z,10.48
2022-11-05T10:09:11.784Z,9.95
2022-11-05T10:11:40.416Z,9.80
2022-11-05T10:14:11.412Z,10.48
2022-11-05T10:16:40.820Z,9.30
2022-11-05T10:19:14.928Z,11.75
2022-11-05T10:24:28.005Z,12.50
2022-11-05T10:26:54.599Z,8.55
2022-11-05T10:29:26.717Z,8.98
2022-11-05T10:31:54.250Z,10.73
2022-11-05T10:34:21.326Z,10.15
2022-11-05T10:36:48.146Z,6.80
2022-11-05T10:39:15.987Z,10.10
2022-11-05T10:42:02.234Z,8.48
2022-11-05T10:44:42.260Z,7.97
2022-11-05T10:47:32.262Z,7.25
2022-11-05T10:50:02.767Z,6.35
2022-11-05T10:52:34.216Z,5.82
2022-11-05T10:55:01.835Z,7.00
2022-11-05T10:57:36.140Z,5.95
2022-11-05T11:00:18.116Z,4.63
2022-11-05T11:02:49.201Z,9.75
2022-11-05T11:05:27.839Z,5.15
2022-11-05T11:07:56.511Z,5.72
2022-11-05T11:10:23.044Z,4.10
2022-11-05T11:12:50.223Z,6.40
2022-11-05T11:15:22.912Z,5.13
2022-11-05T11:17:49.238Z,6.80
2022-11-05T11:20:33.959Z,5.60
2022-11-05T11:23:01.748Z,4.55
2022-11-05T11:25:29.883Z,7.25
2022-11-05T11:28:00.616Z,5.85
2022-11-05T11:30:27.368Z,4.50
2022-11-05T11:32:56.396Z,6.22
2022-11-05T11:35:24.092Z,4.75
2022-11-05T11:37:52.902Z,5.60
2022-11-05T11:40:20.432Z,8.65
2022-11-05T11:42:57.375Z,4.90
2022-11-05T11:45:34.075Z,6.93
2022-11-05T11:48:08.008Z,6.47
2022-11-05T11:50:36.798Z,4.10
2022-11-05T11:53:21.389Z,4.15
2022-11-05T11:55:56.810Z,4.82
2022-11-05T11:58:25.512Z,6.47
2022-11-05T12:00:59.720Z,6.43
2022-11-05T12:03:33.506Z,5.40
2022-11-05T12:06:05.799Z,4.13
2022-11-05T12:08:35.123Z,5.72
2022-11-05T12:11:08.063Z,6.85
2022-11-05T12:13:53.150Z,5.85
2022-11-05T12:16:24.279Z,5.53
2022-11-05T12:19:12.100Z,7.13
2022-11-05T12:21:52.454Z,6.50
2022-11-05T12:24:28.689Z,5.05
2022-11-05T12:27:14.439Z,5.97
2022-11-05T12:29:57.878Z,3.60
2022-11-05T12:32:33.181Z,6.88
2022-11-05T12:35:00.522Z,6.13
2022-11-05T12:37:29.974Z,6.05
2022-11-05T12:39:56.223Z,4.45
2022-11-05T12:42:31.993Z,6.93
2022-11-05T12:45:17.097Z,9.82
2022-11-05T12:47:46.469Z,7.68
2022-11-05T12:50:27.992Z,9.27
2022-11-05T12:53:03.654Z,5.38
2022-11-05T12:55:45.448Z,10.55
2022-11-05T12:58:19.346Z,8.07
2022-11-05T13:00:47.427Z,12.55
2022-11-05T13:03:25.327Z,13.95
2022-11-05T13:06:09.926Z,5.57
2022-11-05T13:08:52.478Z,8.90
2022-11-05T13:11:29.774Z,13.02
2022-11-05T13:14:14.115Z,6.60
2022-11-05T13:19:06.615Z,6.43
2022-11-05T13:21:34.709Z,6.63
2022-11-05T13:24:10.739Z,4.18
2022-11-05T13:26:46.952Z,4.38
2022-11-05T13:29:16.670Z,6.15
2022-11-05T13:31:47.720Z,4.18
2022-11-05T13:34:14.073Z,3.63
2022-11-05T13:37:05.217Z,5.63
2022-11-05T13:39:42.734Z,6.75
2022-11-05T13:42:27.781Z,15.57
2022-11-05T13:45:00.976Z,27.25
2022-11-05T13:47:33.104Z,10.87
2022-11-05T13:49:59.359Z,5.75
2022-11-05T13:52:33.868Z,5.93
2022-11-05T13:55:00.150Z,4.93
2022-11-05T13:57:32.122Z,9.23
2022-11-05T14:00:05.476Z,6.85
2022-11-05T14:02:40.316Z,10.98
2022-11-05T14:05:07.585Z,10.73
2022-11-05T14:07:36.450Z,12.45
2022-11-05T14:10:11.522Z,9.50
2022-11-05T14:12:39.367Z,4.28
2022-11-05T14:15:17.466Z,5.15
2022-11-05T14:17:54.541Z,6.68
2022-11-05T14:20:33.087Z,4.45
2022-11-05T14:23:17.848Z,6.15
2022-11-05T14:25:44.237Z,3.35
2022-11-05T14:28:29.368Z,6.13
2022-11-05T14:30:55.731Z,5.07
2022-11-05T14:33:24.993Z,5.80
2022-11-05T14:35:52.024Z,4.93
2022-11-05T14:38:20.131Z,4.25
2022-11-05T14:40:46.803Z,7.72
2022-11-05T14:43:21.550Z,5.63
2022-11-05T14:46:01.758Z,4.90
2022-11-05T14:48:35.403Z,3.60
2022-11-05T14:51:01.940Z,6.78
2022-11-05T14:53:28.264Z,7.90
2022-11-05T14:55:59.576Z,5.72
2022-11-05T14:58:28.958Z,2.42
2022-11-05T15:00:55.834Z,3.28
2022-11-05T15:03:28.220Z,5.40
2022-11-05T15:06:04.659Z,5.10
2022-11-05T15:08:30.930Z,4.82
2022-11-05T15:11:03.752Z,5.07
2022-11-05T15:13:36.062Z,8.27
2022-11-05T15:16:03.669Z,10.02
2022-11-05T15:18:33.190Z,5.65
2022-11-05T15:21:01.755Z,6.60
2022-11-05T15:23:33.847Z,3.65
2022-11-05T15:26:00.120Z,6.10
2022-11-05T15:28:31.191Z,5.75
2022-11-05T15:30:59.046Z,4.22
2022-11-05T15:33:25.688Z,3.70
2022-11-05T15:35:52.025Z,5.03
2022-11-05T15:38:26.751Z,5.22
2022-11-05T15:41:17.395Z,5.88
2022-11-05T15:43:47.953Z,5.20
2022-11-05T15:46:21.999Z,10.18
2022-11-05T15:48:49.822Z,6.30
2022-11-05T15:51:17.418Z,8.23
2022-11-05T15:53:56.556Z,11.05
2022-11-05T15:56:59.680Z,4.85
2022-11-05T15:59:27.024Z,8.13
2022-11-05T16:01:56.308Z,6.13
2022-11-05T16:04:24.611Z,4.90
2022-11-05T16:06:52.419Z,7.38
2022-11-05T16:09:23.476Z,6.55
2022-11-05T16:11:53.207Z,6.57
2022-11-05T16:14:19.707Z,7.95
2022-11-05T16:16:46.704Z,13.02
2022-11-05T16:19:35.588Z,7.82
2022-11-05T16:22:06.380Z,6.97
2022-11-05T16:24:32.775Z,9.63
2022-11-05T16:27:03.032Z,12.60
2022-11-05T16:29:34.416Z,12.32
2022-11-05T16:32:02.813Z,9.35
2022-11-05T16:34:38.315Z,12.30
2022-11-05T16:37:05.642Z,14.80
2022-11-05T16:39:32.101Z,12.40
2022-11-05T16:41:58.483Z,9.73
2022-11-05T16:44:24.876Z,12.80
2022-11-05T16:46:52.053Z,8.75
2022-11-05T16:49:18.349Z,8.48
2022-11-05T16:51:44.695Z,12.45
2022-11-05T16:54:10.964Z,8.45
2022-11-05T16:56:39.748Z,7.20
2022-11-05T16:59:06.996Z,7.40
2022-11-05T17:01:34.306Z,10.13
2022-11-05T17:04:00.673Z,11.07
2022-11-05T17:06:26.999Z,18.90
2022-11-05T17:08:53.256Z,13.98
2022-11-05T17:11:20.468Z,12.82
2022-11-05T17:13:47.107Z,13.10
2022-11-05T17:16:14.687Z,12.40
2022-11-05T17:18:41.495Z,10.75
2022-11-05T17:21:08.305Z,14.02
2022-11-05T17:23:34.813Z,11.68
2022-11-05T17:26:03.230Z,15.85
2022-11-05T17:28:30.335Z,18.73
2022-11-05T17:30:58.536Z,14.38
2022-11-05T17:33:24.926Z,21.65
2022-11-05T17:35:51.488Z,37.22
2022-11-05T17:38:18.216Z,19.88
2022-11-05T17:40:44.563Z,20.45
2022-11-05T17:43:11.370Z,16.67
2022-11-05T17:45:45.603Z,51.50
2022-11-05T17:50:42.169Z,20.00
2022-11-05T17:53:08.915Z,29.27
2022-11-05T17:55:35.639Z,22.88
2022-11-05T17:58:02.254Z,21.95
2022-11-05T18:00:28.968Z,19.27
2022-11-05T18:02:55.247Z,27.38
2022-11-05T18:05:22.141Z,22.90
2022-11-05T18:07:49.054Z,23.15
2022-11-05T18:10:15.767Z,28.92
2022-11-05T18:12:42.416Z,24.65
2022-11-05T18:15:08.844Z,23.40
2022-11-05T18:17:35.598Z,28.33
2022-11-05T18:20:02.302Z,33.15
2022-11-05T18:22:29.464Z,33.22
2022-11-05T18:24:55.763Z,29.75
2022-11-05T18:27:24.513Z,25.00
2022-11-05T18:29:50.962Z,30.33
2022-11-05T18:32:17.233Z,24.23
2022-11-05T18:34:43.493Z,23.70
2022-11-05T18:37:09.796Z,19.88
2022-11-05T18:39:36.074Z,31.80
2022-11-05T18:42:02.392Z,22.40
2022-11-05T18:44:28.700Z,23.85
2022-11-05T18:46:58.889Z,21.20
2022-11-05T18:49:25.747Z,22.70
2022-11-05T18:51:52.038Z,20.98
2022-11-05T18:54:18.740Z,23.25
2022-11-05T18:56:45.605Z,20.23
2022-11-05T19:02:03.975Z,24.08
2022-11-05T19:04:30.632Z,21.75
2022-11-05T19:07:00.220Z,25.67
2022-11-05T19:09:30.679Z,21.55
2022-11-05T19:11:57.087Z,19.45
2022-11-05T19:14:23.374Z,21.83
2022-11-05T19:16:49.657Z,23.75
2022-11-05T19:19:15.933Z,25.48
2022-11-05T19:21:42.251Z,21.40
2022-11-05T19:24:08.549Z,22.98
2022-11-05T19:26:34.874Z,21.27
2022-11-05T19:29:01.825Z,23.95
2022-11-05T19:31:28.595Z,26.75
2022-11-05T19:33:55.303Z,19.90
2022-11-05T19:36:22.285Z,18.42
2022-11-05T19:38:49.557Z,23.48
2022-11-05T19:41:18.105Z,21.15
2022-11-05T19:43:44.427Z,22.45
2022-11-05T19:46:12.255Z,22.50
2022-11-05T19:48:38.702Z,24.05
2022-11-05T19:51:06.034Z,26.50
2022-11-05T19:53:34.255Z,27.00
2022-11-05T19:56:04.018Z,24.30
2022-11-05T19:58:30.279Z,25.65
2022-11-05T20:00:56.537Z,22.70
2022-11-05T20:03:23.053Z,26.00
2022-11-05T20:05:49.368Z,25.27
2022-11-05T20:08:15.731Z,25.52
2022-11-05T20:10:42.037Z,31.45
2022-11-05T20:13:08.328Z,32.78
2022-11-05T20:15:38.934Z,31.27
2022-11-05T20:18:06.000Z,36.55
2022-11-05T20:20:32.452Z,34.95
2022-11-05T20:22:58.729Z,27.02
2022-11-05T20:25:24.999Z,31.52
2022-11-05T20:27:51.275Z,28.92
2022-11-05T20:30:18.494Z,30.40
2022-11-05T20:32:44.762Z,28.17
2022-11-05T20:35:11.195Z,25.27
2022-11-05T20:37:37.460Z,31.63
2022-11-05T20:40:03.925Z,28.05
2022-11-05T20:42:30.213Z,32.00
2022-11-05T20:44:56.545Z,36.75
2022-11-05T20:47:22.919Z,31.50
2022-11-05T20:49:49.184Z,31.52
2022-11-05T20:52:17.117Z,31.35
2022-11-05T20:54:43.905Z,32.88
2022-11-05T20:57:10.205Z,33.47
2022-11-05T20:59:36.477Z,34.63
2022-11-05T21:02:02.838Z,35.08
2022-11-05T21:04:29.389Z,32.45
2022-11-05T21:06:55.679Z,35.15
2022-11-05T21:09:22.036Z,41.33
2022-11-05T21:12:07.132Z,37.58
2022-11-05T21:14:33.398Z,39.30
2022-11-05T21:16:59.687Z,48.63
2022-11-05T21:19:26.031Z,38.78
2022-11-05T21:21:52.293Z,37.00
2022-11-05T21:24:18.572Z,37.97
2022-11-05T21:26:44.876Z,37.42
2022-11-05T21:29:11.164Z,41.80
2022-11-05T21:31:37.650Z,38.40
2022-11-05T21:34:03.998Z,39.83
2022-11-05T21:36:30.297Z,37.58
2022-11-05T21:38:56.564Z,43.35
2022-11-05T21:41:22.882Z,37.85
2022-11-05T21:43:49.136Z,38.60
2022-11-05T21:46:15.483Z,39.25
2022-11-05T21:48:41.775Z,42.63
2022-11-05T21:51:28.791Z,36.58
2022-11-05T21:54:13.733Z,42.85
2022-11-05T21:56:59.104Z,38.83
2022-11-05T21:59:44.113Z,36.58
2022-11-05T22:02:11.689Z,34.88
2022-11-05T22:04:42.156Z,38.08
2022-11-05T22:07:09.200Z,34.08
2022-11-05T22:09:35.648Z,37.38
2022-11-05T22:12:02.296Z,37.45
2022-11-05T22:14:28.976Z,38.33
2022-11-05T22:16:55.608Z,33.40
2022-11-05T22:19:22.112Z,37.08
2022-11-05T22:21:48.379Z,34.20
2022-11-05T22:24:14.939Z,37.00
2022-11-05T22:26:41.702Z,37.22
2022-11-05T22:29:08.475Z,38.00
2022-11-05T22:31:36.498Z,36.15
2022-11-05T22:34:03.384Z,36.45
2022-11-05T22:36:29.692Z,37.50
2022-11-05T22:38:56.051Z,41.60
2022-11-05T22:41:22.496Z,35.22
2022-11-05T22:43:49.122Z,36.53
2022-11-05T22:46:17.230Z,34.53
2022-11-05T22:48:43.860Z,36.75
2022-11-05T22:51:21.272Z,31.67
2022-11-05T22:53:47.691Z,32.83
2022-11-05T22:56:15.307Z,32.65
2022-11-05T22:58:41.800Z,34.53
2022-11-05T23:01:08.958Z,40.45
2022-11-05T23:03:35.313Z,35.38
2022-11-05T23:06:03.559Z,31.65
2022-11-05T23:08:48.648Z,33.67
2022-11-05T23:11:34.766Z,34.75
2022-11-05T23:14:01.352Z,37.03
2022-11-05T23:16:46.431Z,35.58
2022-11-05T23:19:31.615Z,33.47
2022-11-05T23:22:16.710Z,35.53
2022-11-05T23:24:42.955Z,32.53
2022-11-05T23:27:09.239Z,38.20
2022-11-05T23:29:35.528Z,30.35
2022-11-05T23:32:20.683Z,35.15
2022-11-05T23:34:46.934Z,31.00
2022-11-05T23:37:32.019Z,31.13
2022-11-05T23:39:58.281Z,31.67
2022-11-05T23:42:43.357Z,30.90
2022-11-05T23:45:28.193Z,29.13
2022-11-05T23:48:13.435Z,31.75
2022-11-05T23:50:40.460Z,31.98
2022-11-05T23:53:07.227Z,34.75
2022-11-05T23:55:33.497Z,31.95
2022-11-05T23:57:59.822Z,28.52
